Time;durP1;ratioP1;P1;durP2;ratioP2;P2;SDS_P1;SDS_P2;PMS_P1;PMS_P2;Temp;Humidity;BMP_temperature;BMP_pressure;BME280_temperature;BME280_humidity;BME280_pressure;Samples;Min_cycle;Max_cycle;Signal;HPM_P1;HPM_P2
2021/06/07 00:01:15;;;;;;;3.75;1.10;;;;;;;22.28;48.54;102357.31;5031583;28;20017;-58
2021/06/07 00:03:41;;;;;;;4.00;1.08;;;;;;;22.28;48.55;102356.47;5032092;28;20018;-59
2021/06/07 00:06:06;;;;;;;2.28;1.10;;;;;;;22.28;48.56;102353.81;5031981;28;20036;-58
2021/06/07 00:08:34;;;;;;;2.20;1.10;;;;;;;22.27;48.51;102350.31;5031637;28;20028;-58
2021/06/07 00:11:03;;;;;;;2.83;1.00;;;;;;;22.25;48.49;102346.91;5032029;28;20124;-58
2021/06/07 00:13:32;;;;;;;2.00;1.08;;;;;;;22.27;48.49;102344.16;5032410;28;20022;-58
2021/06/07 00:15:58;;;;;;;3.30;1.17;;;;;;;22.25;48.37;102343.41;5031160;28;20037;-58
2021/06/07 00:18:25;;;;;;;3.58;1.13;;;;;;;22.25;48.45;102340.75;5031949;28;20030;-58
2021/06/07 00:21:16;;;;;;;2.00;1.10;;;;;;;22.24;48.46;102347.06;5032119;28;20029;-58
2021/06/07 00:23:45;;;;;;;3.47;1.17;;;;;;;22.25;48.49;102343.41;5028276;28;20037;-58
2021/06/07 00:26:13;;;;;;;1.92;1.00;;;;;;;22.22;48.47;102341.00;5031832;28;20026;-57
2021/06/07 00:28:39;;;;;;;2.92;1.20;;;;;;;22.22;48.40;102339.22;5032176;28;20132;-58
2021/06/07 00:31:08;;;;;;;2.58;1.10;;;;;;;22.22;48.45;102344.53;5031030;28;20084;-58
2021/06/07 00:33:35;;;;;;;2.50;1.20;;;;;;;22.20;48.46;102341.13;5031993;28;20022;-58
2021/06/07 00:36:02;;;;;;;2.08;1.00;;;;;;;22.21;48.18;102344.63;5032212;28;20097;-58
2021/06/07 00:38:28;;;;;;;3.15;1.17;;;;;;;22.20;48.35;102338.47;5031138;28;20469;-58
2021/06/07 00:40:55;;;;;;;4.15;1.30;;;;;;;22.20;48.61;102340.28;5031939;28;20021;-58
2021/06/07 00:43:20;;;;;;;1.73;0.93;;;;;;;22.17;48.29;102333.38;5031617;28;20037;-58
2021/06/07 00:45:46;;;;;;;2.10;1.00;;;;;;;22.19;48.27;102335.91;5031237;28;20017;-57
2021/06/07 00:48:11;;;;;;;2.88;1.10;;;;;;;22.18;48.34;102340.38;5031467;28;20536;-58
2021/06/07 00:50:53;;;;;;;2.05;1.00;;;;;;;22.18;48.38;102339.56;5046540;28;20033;-59
2021/06/07 00:53:19;;;;;;;2.38;1.10;;;;;;;22.17;48.37;102343.16;5031755;28;20315;-59
2021/06/07 00:55:57;;;;;;;2.92;1.20;;;;;;;22.17;48.32;102340.50;5031972;28;20482;-59
2021/06/07 00:58:24;;;;;;;2.28;1.02;;;;;;;22.16;48.12;102341.47;5030759;28;20384;-58
2021/06/07 01:00:50;;;;;;;2.30;1.10;;;;;;;22.13;48.06;102339.91;5031698;28;20381;-57
2021/06/07 01:03:17;;;;;;;3.95;1.35;;;;;;;22.12;48.35;102332.88;5031615;28;20029;-58
2021/06/07 01:05:46;;;;;;;2.38;1.10;;;;;;;22.14;48.20;102341.56;5031353;28;20028;-58
2021/06/07 01:08:12;;;;;;;2.80;1.10;;;;;;;22.14;48.42;102341.56;5031453;28;20025;-58
2021/06/07 01:10:38;;;;;;;3.03;1.30;;;;;;;22.13;48.32;102339.03;5031427;28;20054;-58
2021/06/07 01:13:03;;;;;;;2.83;1.13;;;;;;;22.13;48.07;102339.03;5032385;28;20461;-57
2021/06/07 01:15:31;;;;;;;1.88;0.80;;;;;;;22.12;48.40;102332.88;5035795;28;20037;-58
2021/06/07 01:17:57;;;;;;;1.48;0.90;;;;;;;22.12;48.13;102338.19;5035600;28;20045;-58
2021/06/07 01:20:23;;;;;;;1.67;0.98;;;;;;;22.11;48.05;102336.50;5034688;28;20036;-58
2021/06/07 01:22:50;;;;;;;3.53;1.30;;;;;;;22.11;48.14;102328.53;5035651;28;20070;-58
2021/06/07 01:25:26;;;;;;;2.25;1.00;;;;;;;22.09;48.39;102333.09;5035150;28;20032;-59
2021/06/07 01:27:53;;;;;;;2.05;1.10;;;;;;;22.10;48.26;102333.00;5034650;28;20100;-58
2021/06/07 01:30:22;;;;;;;2.67;1.13;;;;;;;22.09;48.02;102325.97;5034994;28;20018;-58
2021/06/07 01:32:47;;;;;;;2.15;1.10;;;;;;;22.05;48.17;102321.88;5034751;28;20087;-59
2021/06/07 01:35:14;;;;;;;2.47;1.10;;;;;;;22.07;48.21;102319.94;5035335;28;20025;-58
2021/06/07 01:37:40;;;;;;;3.53;1.35;;;;;;;22.07;48.20;102319.94;5035611;28;20029;-58
2021/06/07 01:40:20;;;;;;;3.35;1.10;;;;;;;22.06;48.15;102318.28;5034353;28;20061;-58
2021/06/07 01:42:46;;;;;;;2.85;1.10;;;;;;;22.05;48.22;102323.69;5035542;28;20109;-59
2021/06/07 01:45:14;;;;;;;2.40;1.02;;;;;;;22.04;48.14;102322.00;5034906;28;20049;-58
2021/06/07 01:47:39;;;;;;;1.88;1.02;;;;;;;22.04;48.12;102317.53;5034437;28;20029;-58
2021/06/07 01:50:06;;;;;;;1.70;0.90;;;;;;;22.04;48.04;102317.53;5034831;28;20025;-58
2021/06/07 01:52:35;;;;;;;3.47;1.05;;;;;;;22.05;48.31;102323.69;5034916;28;20056;-59
2021/06/07 01:55:01;;;;;;;1.33;0.80;;;;;;;22.03;48.06;102325.59;5034293;28;20029;-58
2021/06/07 01:57:27;;;;;;;2.50;1.10;;;;;;;22.04;47.93;102327.31;5034340;28;20033;-59
2021/06/07 01:59:53;;;;;;;1.85;0.98;;;;;;;22.01;47.89;102323.06;5034878;28;20026;-59
2021/06/07 02:02:18;;;;;;;2.53;1.10;;;;;;;21.98;47.60;102312.66;5033711;28;20113;-59
2021/06/07 02:04:43;;;;;;;2.22;1.10;;;;;;;22.01;48.04;102323.06;5034658;28;20116;-59
2021/06/07 02:07:09;;;;;;;1.95;1.00;;;;;;;22.02;47.93;102322.13;5034287;28;20025;-59
2021/06/07 02:09:39;;;;;;;2.08;1.00;;;;;;;22.00;47.88;102326.69;5033684;28;20494;-59
2021/06/07 02:12:06;;;;;;;2.55;1.15;;;;;;;22.00;47.86;102331.13;5034359;28;20557;-58
2021/06/07 02:14:34;;;;;;;2.05;0.98;;;;;;;21.99;47.65;102327.66;5034465;28;20036;-58
2021/06/07 02:17:03;;;;;;;2.47;1.15;;;;;;;21.98;47.92;102327.75;5033848;28;20025;-58
2021/06/07 02:19:28;;;;;;;4.10;1.00;;;;;;;21.99;47.80;102327.66;5034686;28;20547;-58
2021/06/07 02:21:53;;;;;;;3.30;1.17;;;;;;;21.95;47.90;102320.84;5034417;28;20054;-59
2021/06/07 02:24:19;;;;;;;2.53;1.10;;;;;;;;;;5032950;28;20523;-57
2021/06/07 02:26:44;;;;;;;2.73;1.10;;;;;;;21.96;47.83;102327.88;5034817;28;20025;-57
2021/06/07 02:29:15;;;;;;;2.63;1.20;;;;;;;21.96;47.92;102327.03;5033337;28;20026;-58
2021/06/07 02:31:41;;;;;;;2.55;1.00;;;;;;;21.92;47.79;102332.56;5034314;28;20344;-58
2021/06/07 02:34:09;;;;;;;2.75;1.00;;;;;;;21.93;47.84;102328.09;5034070;28;20021;-59
2021/06/07 02:36:37;;;;;;;3.38;1.17;;;;;;;21.93;47.86;102336.91;5033491;28;20021;-58
2021/06/07 02:39:09;;;;;;;2.25;1.00;;;;;;;21.90;47.70;102331.84;5034039;28;20064;-58
2021/06/07 02:41:39;;;;;;;2.38;1.15;;;;;;;21.92;47.72;102331.69;5034218;28;20061;-58
2021/06/07 02:44:04;;;;;;;3.10;1.02;;;;;;;21.92;47.84;102337.00;5032731;28;20108;-58
2021/06/07 02:46:30;;;;;;;1.92;1.00;;;;;;;21.90;47.91;102337.16;5033982;28;20060;-57
2021/06/07 02:48:58;;;;;;;2.10;1.00;;;;;;;21.89;47.61;102334.63;5033668;28;20404;-58
2021/06/07 02:51:23;;;;;;;2.50;1.10;;;;;;;21.91;47.90;102344.13;5032954;28;20108;-57
2021/06/07 02:53:49;;;;;;;2.77;1.23;;;;;;;21.89;47.59;102340.75;5033902;28;20025;-59
2021/06/07 02:56:15;;;;;;;2.42;1.10;;;;;;;21.86;47.81;102338.34;5033453;28;20271;-60
2021/06/07 02:58:41;;;;;;;1.85;0.90;;;;;;;21.89;47.80;102346.06;5032994;28;20454;-58
2021/06/07 03:01:10;;;;;;;1.98;1.00;;;;;;;21.88;47.49;102340.88;5034427;28;20025;-56
2021/06/07 03:03:36;;;;;;;3.10;1.10;;;;;;;21.88;47.68;102339.06;5034365;28;20116;-58
2021/06/07 03:06:03;;;;;;;2.03;0.90;;;;;;;21.87;47.57;102342.69;5033634;28;20457;-58
2021/06/07 03:08:30;;;;;;;2.58;1.02;;;;;;;21.88;47.63;102340.88;5035325;28;20030;-58
2021/06/07 03:10:59;;;;;;;1.42;1.00;;;;;;;21.87;47.49;102341.81;5035700;28;20132;-59
2021/06/07 03:13:24;;;;;;;2.42;1.00;;;;;;;21.87;47.63;102339.16;5035395;28;20062;-59
2021/06/07 03:15:52;;;;;;;2.50;1.10;;;;;;;21.86;47.46;102342.81;5036430;28;20093;-58
2021/06/07 03:18:18;;;;;;;1.98;0.93;;;;;;;21.84;47.56;102342.91;5036130;28;20099;-58
2021/06/07 03:20:44;;;;;;;1.70;0.90;;;;;;;21.83;47.52;102345.69;5035341;28;20492;-58
2021/06/07 03:23:14;;;;;;;2.40;1.10;;;;;;;21.85;47.60;102347.25;5032797;28;20460;-58
2021/06/07 03:25:40;;;;;;;1.95;0.80;;;;;;;21.85;47.57;102351.72;5032305;28;20095;-58
2021/06/07 03:28:09;;;;;;;1.40;0.88;;;;;;;21.84;47.55;102355.31;5032980;28;20021;-58
2021/06/07 03:30:37;;;;;;;2.03;1.00;;;;;;;21.83;47.48;102348.34;5032846;28;20025;-59
2021/06/07 03:33:07;;;;;;;1.73;0.90;;;;;;;21.82;47.54;102358.09;5032235;28;20075;-59
2021/06/07 03:35:34;;;;;;;2.08;1.08;;;;;;;21.82;47.37;102358.09;5033069;28;20026;-59
2021/06/07 03:37:59;;;;;;;2.08;1.00;;;;;;;21.82;47.43;102349.28;5032945;28;20083;-58
2021/06/07 03:40:29;;;;;;;3.13;1.20;;;;;;;21.81;47.46;102355.53;5031879;28;20420;-59
2021/06/07 03:42:55;;;;;;;2.33;1.10;;;;;;;21.80;47.32;102359.16;5032560;28;20022;-58
2021/06/07 03:45:23;;;;;;;2.25;1.02;;;;;;;21.79;47.42;102355.66;5032374;28;20436;-59
2021/06/07 03:47:49;;;;;;;3.08;1.10;;;;;;;21.78;47.22;102358.41;5032028;28;20018;-59
2021/06/07 03:50:17;;;;;;;2.35;1.00;;;;;;;21.78;47.33;102355.75;5032214;28;20022;-59
2021/06/07 03:52:43;;;;;;;2.00;1.02;;;;;;;21.79;47.29;102353.00;5032337;28;20082;-58
2021/06/07 03:55:12;;;;;;;2.03;1.02;;;;;;;21.78;47.43;102353.09;5031642;28;20445;-57
2021/06/07 03:57:37;;;;;;;2.67;1.08;;;;;;;21.78;47.31;102353.97;5032223;28;20404;-59
2021/06/07 04:00:12;;;;;;;2.53;1.10;;;;;;;21.78;47.16;102355.75;5032127;28;20033;-58
2021/06/07 04:02:37;;;;;;;1.77;0.82;;;;;;;21.76;47.28;102355.03;5031348;28;20543;-58
2021/06/07 04:05:04;;;;;;;2.20;1.05;;;;;;;21.77;47.02;102357.56;5031861;28;20034;-57
2021/06/07 04:07:29;;;;;;;2.17;1.00;;;;;;;21.77;47.17;102362.88;5031606;28;20366;-59
2021/06/07 04:09:57;;;;;;;2.35;1.05;;;;;;;21.76;47.30;102355.03;5031950;28;20535;-58
2021/06/07 04:12:23;;;;;;;1.95;0.90;;;;;;;21.76;47.27;102355.88;5031756;28;20417;-58
2021/06/07 04:14:48;;;;;;;1.75;0.90;;;;;;;21.75;47.20;102362.16;5031689;28;20454;-59
2021/06/07 04:17:13;;;;;;;2.28;0.93;;;;;;;21.74;47.15;102358.63;5031951;28;20095;-59
2021/06/07 04:19:39;;;;;;;1.88;1.00;;;;;;;21.76;47.06;102360.34;5032318;28;20018;-58
2021/06/07 04:22:04;;;;;;;2.20;1.20;;;;;;;21.75;47.11;102362.16;5030931;28;20580;-59
2021/06/07 04:24:29;;;;;;;1.45;0.90;;;;;;;21.76;47.01;102365.66;5032097;28;20036;-59
2021/06/07 04:26:55;;;;;;;2.17;1.10;;;;;;;21.74;47.11;102369.25;5032068;28;20026;-57
2021/06/07 04:29:20;;;;;;;2.03;1.00;;;;;;;21.74;47.23;102366.59;5031164;28;20021;-59
2021/06/07 04:31:46;;;;;;;3.17;0.90;;;;;;;21.73;46.92;102364.91;5032121;28;20052;-59
2021/06/07 04:34:12;;;;;;;2.10;1.00;;;;;;;21.70;47.07;102362.50;5031666;28;20031;-58
2021/06/07 04:36:37;;;;;;;1.55;1.00;;;;;;;21.74;47.05;102357.81;5031127;28;20031;-59
2021/06/07 04:39:05;;;;;;;1.80;0.95;;;;;;;21.74;47.19;102365.75;5031586;28;20476;-59
2021/06/07 04:41:30;;;;;;;2.80;1.15;;;;;;;21.74;47.14;102363.09;5031757;28;20021;-59
2021/06/07 04:43:56;;;;;;;3.08;1.10;;;;;;;21.68;46.98;102353.81;5031049;28;20028;-59
2021/06/07 04:46:21;;;;;;;2.63;1.00;;;;;;;21.74;47.07;102360.44;5031537;28;20064;-60
2021/06/07 04:48:46;;;;;;;1.80;0.90;;;;;;;21.73;46.94;102362.28;5037682;28;20032;-58
2021/06/07 04:51:11;;;;;;;2.60;0.98;;;;;;;21.71;46.99;102364.19;5037080;28;20060;-59
2021/06/07 04:53:37;;;;;;;2.03;1.00;;;;;;;21.72;47.15;102368.53;5038111;28;20133;-59
2021/06/07 04:56:02;;;;;;;2.38;1.00;;;;;;;21.71;46.92;102364.19;5037593;28;20603;-59
2021/06/07 04:58:30;;;;;;;2.13;1.05;;;;;;;21.70;47.18;102359.84;5037316;28;20021;-59
2021/06/07 05:01:00;;;;;;;2.13;0.95;;;;;;;21.72;47.09;102362.38;5037942;28;20059;-58
2021/06/07 05:03:27;;;;;;;2.40;1.13;;;;;;;21.73;47.19;102366.75;5037788;28;20021;-58
2021/06/07 05:05:57;;;;;;;2.63;1.10;;;;;;;21.72;46.90;102362.38;5037115;28;20044;-59
2021/06/07 05:08:23;;;;;;;2.20;0.90;;;;;;;21.71;47.09;102364.19;5037700;28;20036;-59
2021/06/07 05:10:48;;;;;;;2.60;1.23;;;;;;;21.72;46.98;102365.88;5036964;28;20053;-58
2021/06/07 05:13:15;;;;;;;3.17;1.25;;;;;;;21.73;47.10;102366.75;5037574;28;20531;-58
2021/06/07 05:15:42;;;;;;;1.98;1.00;;;;;;;21.73;47.12;102358.78;5037802;28;20108;-58
2021/06/07 05:18:08;;;;;;;2.97;1.00;;;;;;;21.74;46.71;102363.09;5036764;28;20048;-58
2021/06/07 05:20:34;;;;;;;3.25;0.90;;;;;;;21.73;47.01;102362.28;5037722;28;20025;-58
2021/06/07 05:23:00;;;;;;;2.00;0.95;;;;;;;21.74;46.74;102369.25;5037836;28;20385;-58
2021/06/07 05:25:28;;;;;;;2.03;1.00;;;;;;;21.73;46.84;102370.22;5036438;28;20052;-58
2021/06/07 05:27:54;;;;;;;2.20;1.00;;;;;;;21.75;46.61;102364.81;5037810;28;20500;-58
2021/06/07 05:30:22;;;;;;;1.75;0.90;;;;;;;21.75;46.89;102367.47;5037478;28;20028;-59
2021/06/07 05:32:47;;;;;;;1.67;0.75;;;;;;;21.76;46.82;102361.19;5036882;28;20033;-57
2021/06/07 05:35:14;;;;;;;1.58;0.90;;;;;;;21.77;46.71;102362.03;5037391;28;20103;-59
2021/06/07 05:37:40;;;;;;;2.60;1.20;;;;;;;21.76;46.75;102371.78;5037530;28;20022;-57
2021/06/07 05:40:08;;;;;;;1.88;1.00;;;;;;;21.77;46.65;102368.19;5036520;28;20060;-58
2021/06/07 05:42:34;;;;;;;3.78;0.90;;;;;;;21.77;46.97;102370.84;5037822;28;20113;-58
2021/06/07 05:44:59;;;;;;;2.03;1.02;;;;;;;21.77;46.77;102367.34;5037774;28;20025;-58
2021/06/07 05:47:25;;;;;;;2.22;0.90;;;;;;;21.78;46.60;102369.91;5036824;28;20075;-60
2021/06/07 05:49:50;;;;;;;1.67;0.95;;;;;;;21.79;47.02;102368.09;5037771;28;20374;-58
2021/06/07 05:52:15;;;;;;;2.00;0.90;;;;;;;21.80;46.61;102372.44;5037211;28;20107;-57
2021/06/07 05:54:43;;;;;;;2.13;0.98;;;;;;;21.78;46.67;102374.34;5036675;28;20453;-58
2021/06/07 05:57:09;;;;;;;2.45;0.93;;;;;;;21.77;46.55;102373.50;5037405;28;20025;-58
2021/06/07 05:59:36;;;;;;;2.42;1.10;;;;;;;21.76;46.40;102373.59;5034525;28;20025;-58
2021/06/07 06:02:06;;;;;;;1.67;0.90;;;;;;;21.80;46.46;102377.75;5033436;28;20321;-58
2021/06/07 06:04:32;;;;;;;2.33;1.05;;;;;;;21.80;46.65;102373.28;5034292;28;20021;-58
2021/06/07 06:06:59;;;;;;;3.28;1.30;;;;;;;21.82;46.89;102376.66;5034395;28;20063;-59
2021/06/07 06:09:24;;;;;;;2.58;0.90;;;;;;;21.84;46.72;102377.41;5033609;28;20100;-60
2021/06/07 06:11:49;;;;;;;2.47;1.00;;;;;;;21.85;46.70;102379.09;5034430;28;20121;-58
2021/06/07 06:14:15;;;;;;;3.10;1.10;;;;;;;21.86;47.00;102372.84;5033359;28;20025;-59
2021/06/07 06:16:40;;;;;;;2.88;1.10;;;;;;;21.87;46.82;102374.53;5034535;28;20536;-59
2021/06/07 06:19:05;;;;;;;1.85;0.90;;;;;;;21.89;46.91;102371.78;5033939;28;20422;-58
2021/06/07 06:21:30;;;;;;;1.73;0.90;;;;;;;21.90;47.12;102366.34;5033306;28;20435;-58
2021/06/07 06:23:56;;;;;;;2.92;0.98;;;;;;;21.91;47.20;102362.72;5034331;28;20109;-59
2021/06/07 06:26:22;;;;;;;5.63;1.00;;;;;;;21.92;47.29;102360.91;5033946;28;20065;-58
2021/06/07 06:28:48;;;;;;;2.13;1.05;;;;;;;21.96;47.36;102362.38;5033553;28;20027;-59
2021/06/07 06:31:15;;;;;;;2.08;0.90;;;;;;;21.90;47.47;102346.91;5033916;28;20029;-58
2021/06/07 06:33:40;;;;;;;2.20;0.90;;;;;;;21.99;47.32;102363.97;5034065;28;20083;-58
2021/06/07 06:36:09;;;;;;;1.40;0.85;;;;;;;21.99;47.55;102362.16;5032947;28;20025;-58
2021/06/07 06:38:35;;;;;;;4.03;1.20;;;;;;;22.00;47.44;102361.22;5033936;28;20461;-58
2021/06/07 06:41:01;;;;;;;2.63;1.00;;;;;;;22.06;47.49;102367.84;5033960;28;20033;-59
2021/06/07 06:43:26;;;;;;;2.53;1.20;;;;;;;22.06;47.42;102366.06;5033564;28;20029;-59
2021/06/07 06:45:52;;;;;;;2.95;1.00;;;;;;;22.06;47.30;102363.41;5033505;28;20045;-61
2021/06/07 06:48:18;;;;;;;2.40;0.90;;;;;;;22.08;47.24;102369.44;5033688;28;20037;-59
2021/06/07 06:50:44;;;;;;;2.13;1.02;;;;;;;22.08;47.17;102361.47;5032940;28;20030;-60
2021/06/07 06:53:13;;;;;;;1.85;1.00;;;;;;;22.10;47.39;102366.66;5033658;28;20100;-59
2021/06/07 06:55:40;;;;;;;2.10;0.90;;;;;;;22.12;47.21;102371.88;5033759;28;20484;-59
2021/06/07 06:58:07;;;;;;;4.40;1.10;;;;;;;22.12;47.50;102367.41;5032764;28;20021;-59
2021/06/07 07:00:36;;;;;;;4.53;1.02;;;;;;;22.15;47.33;102361.84;5031554;28;20026;-59
2021/06/07 07:03:06;;;;;;;4.18;1.20;;;;;;;22.18;47.29;102361.63;5033414;28;20025;-58
2021/06/07 07:05:31;;;;;;;3.35;0.93;;;;;;;22.20;47.66;102362.34;5034069;28;20022;-58
2021/06/07 07:07:57;;;;;;;3.95;0.90;;;;;;;22.23;47.48;102356.81;5033886;28;20087;-59
2021/06/07 07:10:22;;;;;;;3.42;0.90;;;;;;;22.25;47.60;102359.34;5032111;28;20116;-59
2021/06/07 07:12:48;;;;;;;4.30;1.25;;;;;;;22.27;47.82;102362.72;5033464;28;20041;-59
2021/06/07 09:06:49;;;;;;;1.13;0.40;;;;;;;22.30;47.55;102351.91;5151659;27;20331;-59
2021/06/07 09:09:16;;;;;;;1.17;0.52;;;;;;;22.31;47.51;102352.78;5129521;28;20054;-59
2021/06/07 09:12:01;;;;;;;1.00;0.60;;;;;;;22.33;47.39;102362.31;5129943;28;20080;-58
2021/06/07 09:14:30;;;;;;;2.70;0.85;;;;;;;22.33;47.39;102348.19;5129491;28;20042;-59
2021/06/07 09:16:55;;;;;;;1.90;0.88;;;;;;;22.35;47.66;102356.88;5130230;28;20106;-58
2021/06/07 09:19:27;;;;;;;3.95;0.80;;;;;;;22.35;47.64;102349.78;5130185;28;20488;-59
2021/06/07 09:21:55;;;;;;;2.17;0.93;;;;;;;22.37;47.65;102353.16;5130452;28;20019;-58
2021/06/07 09:24:21;;;;;;;1.70;0.63;;;;;;;22.40;47.75;102352.09;5129451;28;20446;-59
2021/06/07 09:26:48;;;;;;;7.88;1.33;;;;;;;22.42;47.64;102339.53;5130466;28;20019;-59
2021/06/07 09:29:19;;;;;;;2.33;0.85;;;;;;;22.44;47.33;102349.06;5130019;28;20043;-59
2021/06/07 09:31:50;;;;;;;2.30;0.80;;;;;;;22.46;47.48;102349.81;5129692;28;20023;-59
2021/06/07 09:34:33;;;;;;;2.53;0.80;;;;;;;22.47;47.48;102355.97;5130079;28;20034;-59
2021/06/07 09:37:10;;;;;;;1.92;0.80;;;;;;;22.48;47.43;102351.47;5130252;28;20031;-59
2021/06/07 09:39:41;;;;;;;1.95;0.80;;;;;;;22.49;47.38;102353.19;5129566;28;20043;-58
2021/06/07 09:42:13;;;;;;;2.63;1.00;;;;;;;22.51;47.33;102353.91;5129827;28;20024;-59
2021/06/07 09:44:53;;;;;;;5.13;1.08;;;;;;;22.51;47.17;102351.25;5129946;28;20027;-59
2021/06/07 09:47:32;;;;;;;2.08;1.08;;;;;;;22.51;47.18;102349.47;5128023;28;20118;-60
2021/06/07 09:50:04;;;;;;;1.67;0.80;;;;;;;22.53;47.02;102352.84;5130167;28;20100;-59
2021/06/07 09:52:31;;;;;;;3.38;1.00;;;;;;;22.54;46.63;102351.00;5129433;28;20080;-60
2021/06/07 09:55:11;;;;;;;2.47;0.90;;;;;;;22.55;46.36;102355.38;5129682;28;20042;-60
2021/06/07 09:57:56;;;;;;;3.17;1.00;;;;;;;22.56;46.00;102354.41;5129974;28;20442;-59
2021/06/07 10:00:35;;;;;;;4.15;0.93;;;;;;;22.54;45.68;102354.53;5128708;28;20047;-62
2021/06/07 10:03:31;;;;;;;2.92;1.00;;;;;;;22.57;45.77;102354.31;5130762;28;20027;-59
2021/06/07 10:06:01;;;;;;;1.33;0.80;;;;;;;22.57;45.93;102353.44;5129036;28;20100;-59
2021/06/07 10:08:40;;;;;;;3.20;0.90;;;;;;;22.57;45.48;102350.78;5129156;28;20067;-59
2021/06/07 10:11:40;;;;;;;3.05;1.30;;;;;;;22.58;45.26;102348.00;5129936;28;20030;-60
2021/06/07 10:14:07;;;;;;;3.33;1.10;;;;;;;22.57;45.63;102345.47;5118914;28;20428;-58
2021/06/07 10:16:36;;;;;;;3.50;0.90;;;;;;;22.59;45.61;102349.72;5125443;28;20110;-58
2021/06/07 10:19:07;;;;;;;2.35;1.02;;;;;;;22.60;45.48;102354.03;5115581;28;20058;-59
2021/06/07 10:21:33;;;;;;;4.18;0.90;;;;;;;22.62;45.40;102348.59;5115015;28;20027;-59
2021/06/07 10:24:00;;;;;;;1.95;0.85;;;;;;;22.64;45.53;102346.69;5116023;28;20119;-58
2021/06/07 10:26:26;;;;;;;3.47;0.98;;;;;;;22.65;45.50;102351.03;5115709;28;20360;-60
2021/06/07 10:28:53;;;;;;;3.10;1.33;;;;;;;22.64;45.44;102347.53;5115247;28;20020;-60
2021/06/07 10:31:21;;;;;;;3.38;1.02;;;;;;;22.62;45.57;102338.84;5115180;28;20024;-61
2021/06/07 10:34:04;;;;;;;1.55;0.75;;;;;;;22.65;45.92;102345.72;5115765;28;20053;-58
2021/06/07 10:36:35;;;;;;;3.83;1.00;;;;;;;22.66;46.14;102347.41;5114867;28;20127;-59
2021/06/07 10:39:09;;;;;;;2.85;0.98;;;;;;;22.67;46.25;102350.91;5115913;28;20031;-60
2021/06/07 10:41:35;;;;;;;3.90;1.05;;;;;;;22.67;46.28;102343.81;5114726;28;20024;-58
2021/06/07 10:44:00;;;;;;;2.33;1.00;;;;;;;22.66;46.23;102331.47;5115320;28;20024;-59
2021/06/07 10:46:32;;;;;;;4.28;1.15;;;;;;;22.70;45.98;102351.53;5115956;28;20046;-59
2021/06/07 10:49:00;;;;;;;2.67;1.42;;;;;;;22.70;45.99;102334.72;5114482;28;20077;-58
2021/06/07 10:51:27;;;;;;;2.50;1.10;;;;;;;22.70;46.08;102329.41;5115111;28;20076;-58
2021/06/07 10:54:12;;;;;;;2.42;0.90;;;;;;;22.65;46.02;102332.44;5115098;28;20059;-59
2021/06/07 10:56:37;;;;;;;4.57;2.55;;;;;;;22.68;46.27;102342.81;5114446;28;20035;-59
2021/06/07 10:59:14;;;;;;;2.90;0.90;;;;;;;22.66;46.50;102334.13;5115450;28;20027;-62
2021/06/07 11:01:54;;;;;;;1.92;0.93;;;;;;;22.67;46.41;102334.97;5115943;28;20063;-60
2021/06/07 11:04:33;;;;;;;3.90;1.00;;;;;;;22.67;46.55;102334.97;5115497;28;20039;-60
2021/06/07 11:07:10;;;;;;;2.65;1.00;;;;;;;22.70;46.42;102342.72;5117686;28;20046;-61
2021/06/07 11:09:35;;;;;;;3.72;1.10;;;;;;;22.70;46.51;102338.25;5115478;28;20106;-60
2021/06/07 11:12:03;;;;;;;2.90;1.00;;;;;;;22.71;46.55;102337.28;5117687;28;20490;-60
2021/06/07 11:14:54;;;;;;;3.58;0.98;;;;;;;22.72;46.60;102332.81;5115563;28;20028;-58
2021/06/07 11:17:24;;;;;;;2.05;0.98;;;;;;;22.73;46.60;102329.19;5113560;28;20019;-59
2021/06/07 11:19:52;;;;;;;3.40;1.00;;;;;;;22.72;46.63;102328.34;5115701;28;20068;-59
2021/06/07 11:22:18;;;;;;;3.50;1.00;;;;;;;22.73;46.37;102318.56;5114753;28;20039;-57
2021/06/07 11:24:45;;;;;;;1.55;0.80;;;;;;;22.72;46.43;102333.66;5114184;28;20110;-58
2021/06/07 11:27:34;;;;;;;3.88;1.10;;;;;;;22.73;46.33;102324.72;5114440;28;20103;-58
2021/06/07 11:30:12;;;;;;;4.35;1.00;;;;;;;22.73;46.27;102323.88;5114099;28;20034;-58
2021/06/07 11:32:40;;;;;;;1.95;0.90;;;;;;;22.70;46.31;102317.00;5113976;28;20039;-58
2021/06/07 11:35:09;;;;;;;2.65;0.95;;;;;;;22.74;46.22;102329.06;5114271;28;20042;-58
2021/06/07 11:37:36;;;;;;;3.63;1.00;;;;;;;22.74;46.20;102323.75;5114037;28;20068;-58
2021/06/07 11:40:10;;;;;;;2.47;0.90;;;;;;;22.72;46.17;102319.53;5114226;28;20030;-60
2021/06/07 11:42:56;;;;;;;2.28;0.90;;;;;;;22.75;46.08;102324.63;5114817;28;20031;-59
2021/06/07 11:45:53;;;;;;;3.17;1.00;;;;;;;22.76;46.11;102316.50;5112490;28;20138;-60
2021/06/07 11:48:19;;;;;;;4.95;1.42;;;;;;;22.77;45.98;102317.34;5068461;28;20122;-59
2021/06/07 11:50:47;;;;;;;4.95;1.30;;;;;;;22.78;46.20;102321.69;5113757;28;20019;-58
2021/06/07 11:53:15;;;;;;;2.25;1.00;;;;;;;22.78;46.18;102313.72;5113006;28;20028;-58
2021/06/07 11:55:43;;;;;;;2.45;1.00;;;;;;;22.80;46.33;102307.31;5113966;28;20035;-58
2021/06/07 11:58:16;;;;;;;1.23;0.80;;;;;;;22.82;46.51;102313.34;5113788;28;20024;-57
2021/06/07 12:00:48;;;;;;;2.13;1.00;;;;;;;22.85;46.51;102311.44;5112909;28;20034;-58
2021/06/07 12:03:17;;;;;;;5.70;1.10;;;;;;;22.86;46.82;102300.69;5113615;28;20084;-59
2021/06/07 12:05:43;;;;;;;2.00;0.88;;;;;;;22.87;46.57;102306.84;5112898;28;20044;-59
2021/06/07 12:08:11;;;;;;;3.85;1.08;;;;;;;22.85;46.42;102300.81;5113629;28;20031;-57
2021/06/07 12:10:37;;;;;;;2.45;0.93;;;;;;;22.87;46.35;102302.38;5113719;28;20034;-57
2021/06/07 12:13:18;;;;;;;2.75;0.90;;;;;;;22.89;46.57;102295.13;5112544;28;20341;-57
2021/06/07 12:15:48;;;;;;;2.60;1.10;;;;;;;22.89;46.62;102299.59;5101976;28;20428;-56
2021/06/07 12:18:26;;;;;;;3.97;1.10;;;;;;;22.89;46.80;102289.81;5092764;28;20024;-60
2021/06/07 12:20:51;;;;;;;4.88;1.10;;;;;;;22.91;46.63;102285.22;5092147;28;20020;-58
2021/06/07 12:23:27;;;;;;;1.90;1.05;;;;;;;22.92;46.92;102284.25;5092310;28;20031;-57
2021/06/07 12:28:39;;;;;;;4.53;1.10;;;;;;;22.96;47.38;102283.03;5093085;28;20114;-59
2021/06/07 12:31:04;;;;;;;2.97;1.02;;;;;;;22.98;47.23;102281.09;5093888;28;20028;-58
2021/06/07 12:33:31;;;;;;;2.95;1.20;;;;;;;23.01;47.34;102282.66;5094397;28;20043;-59
2021/06/07 12:35:57;;;;;;;2.67;1.17;;;;;;;22.99;47.27;102277.47;5092051;28;20035;-58
2021/06/07 12:38:25;;;;;;;4.57;1.10;;;;;;;23.05;47.49;102283.25;5093471;28;20021;-59
2021/06/07 12:40:52;;;;;;;2.03;0.90;;;;;;;23.06;47.20;102271.66;5092305;28;20477;-58
2021/06/07 12:43:20;;;;;;;3.67;0.93;;;;;;;23.09;47.62;102276.78;5092469;28;20099;-59
2021/06/07 12:45:54;;;;;;;3.85;1.00;;;;;;;23.10;47.19;102270.50;5092716;28;20096;-59
2021/06/07 12:48:27;;;;;;;2.50;1.05;;;;;;;23.13;47.18;102263.13;5092561;28;20035;-59
2021/06/07 12:51:15;;;;;;;1.92;0.90;;;;;;;23.14;47.30;102259.47;5093841;28;20359;-58
2021/06/07 12:53:42;;;;;;;2.75;1.00;;;;;;;23.08;47.08;102254.66;5092696;28;20195;-59
2021/06/07 12:56:18;;;;;;;5.47;1.13;;;;;;;23.17;46.93;102256.56;5091472;28;20070;-58
2021/06/07 12:58:47;;;;;;;6.28;1.20;;;;;;;23.20;46.90;102257.31;5091092;28;20043;-58
2021/06/07 13:01:16;;;;;;;3.53;1.10;;;;;;;23.20;46.95;102257.31;5092401;28;20016;-59
2021/06/07 13:03:52;;;;;;;3.80;1.30;;;;;;;23.21;46.71;102262.50;5090346;28;20379;-58
2021/06/07 13:06:18;;;;;;;3.63;1.20;;;;;;;23.22;46.86;102255.34;5091957;28;20044;-58
2021/06/07 13:08:50;;;;;;;2.85;0.90;;;;;;;23.24;46.82;102261.38;5092199;28;20066;-58
2021/06/07 13:11:17;;;;;;;2.92;1.00;;;;;;;23.26;46.54;102262.13;5091387;28;20074;-59
2021/06/07 13:13:50;;;;;;;5.05;1.23;;;;;;;23.29;46.59;102257.41;5092532;28;20422;-59
2021/06/07 13:16:21;;;;;;;2.67;0.95;;;;;;;23.32;46.52;102261.59;5091632;28;20426;-58
2021/06/07 13:18:57;;;;;;;4.38;1.20;;;;;;;23.34;46.51;102255.19;5092711;28;20387;-58
2021/06/07 13:21:53;;;;;;;3.33;1.10;;;;;;;23.31;46.58;102252.78;5092274;28;20024;-57
2021/06/07 13:24:24;;;;;;;2.78;0.98;;;;;;;23.30;46.96;102252.91;5091699;28;20039;-58
2021/06/07 13:27:24;;;;;;;5.22;1.40;;;;;;;23.28;46.22;102258.34;5092108;28;20467;-57
2021/06/07 13:30:14;;;;;;;3.35;1.10;;;;;;;23.27;46.85;102242.53;5093857;28;20020;-60